Time;durP1;ratioP1;P1;durP2;ratioP2;P2;SDS_P1;SDS_P2;PMS_P1;PMS_P2;Temp;Humidity;BMP_temperature;BMP_pressure;BME280_temperature;BME280_humidity;BME280_pressure;Samples;Min_cycle;Max_cycle;Signal;HPM_P1;HPM_P2
2022/10/09 00:01:39;;;;;;;;;54.00;43.00;;;;;11.31;100.00;100083.88;6277075;20;3614313;-51
2022/10/09 00:04:08;;;;;;;;;53.00;43.33;;;;;11.36;100.00;100087.16;6307886;20;2856532;-52
2022/10/09 00:06:38;;;;;;;;;52.00;44.00;;;;;11.41;100.00;100085.94;6304214;20;2860789;-50
2022/10/09 00:09:07;;;;;;;;;62.33;48.33;;;;;11.36;100.00;100087.16;6309072;20;3629417;-53
2022/10/09 00:11:37;;;;;;;;;56.67;46.00;;;;;11.12;100.00;100089.44;6310696;20;2862885;-50
2022/10/09 00:14:06;;;;;;;;;52.33;44.00;;;;;10.96;100.00;100079.56;6306507;20;2856613;-51
2022/10/09 00:16:35;;;;;;;;;57.00;46.50;;;;;10.86;100.00;100072.97;6306008;20;2852424;-54
2022/10/09 00:19:04;;;;;;;;;59.50;47.00;;;;;11.04;100.00;100075.59;6281975;20;2852391;-61
2022/10/09 00:21:34;;;;;;;;;60.67;48.00;;;;;11.21;100.00;100075.47;6282997;20;2864947;-61
2022/10/09 00:24:05;;;;;;;;;56.50;46.50;;;;;11.18;100.00;100072.97;6314440;20;2850278;-61
2022/10/09 00:26:34;;;;;;;;;56.33;47.00;;;;;11.39;100.00;100074.38;6281333;20;2853431;-61
2022/10/09 00:29:03;;;;;;;;;59.00;47.00;;;;;11.35;100.00;100072.84;6313719;20;2862807;-61
2022/10/09 00:31:32;;;;;;;;;54.50;45.50;;;;;11.46;100.00;100076.75;6284074;20;2855519;-61
2022/10/09 00:34:02;;;;;;;;;62.00;48.00;;;;;11.41;100.00;100066.25;6282517;20;3628431;-61
2022/10/09 00:36:31;;;;;;;;;57.00;47.00;;;;;11.41;100.00;100063.56;6310901;20;2858686;-61
2022/10/09 00:39:00;;;;;;;;;55.00;47.00;;;;;11.51;100.00;100064.75;6313679;20;2858796;-61
2022/10/09 00:41:32;;;;;;;;;54.50;45.00;;;;;11.30;100.00;100049.91;6280779;20;2840894;-61
2022/10/09 00:45:02;;;;;;;;;52.00;42.00;;;;;11.27;100.00;100050.94;6281272;20;2865750;-61
2022/10/09 00:47:47;;;;;;;;;55.00;43.00;;;;;11.25;100.00;100047.47;6306976;20;2820112;-61
2022/10/09 00:50:28;;;;;;;;;54.33;45.00;;;;;11.38;100.00;100036.84;6277356;20;2853428;-61
2022/10/09 00:53:00;;;;;;;;;59.00;47.33;;;;;10.97;100.00;100037.44;6311674;20;3623181;-61
2022/10/09 00:55:30;;;;;;;;;80.67;63.33;;;;;11.06;100.00;100046.78;6312718;20;3662269;-54
2022/10/09 00:58:02;;;;;;;;;63.33;49.33;;;;;10.91;100.00;100043.19;6279741;20;3637979;-52
2022/10/09 01:00:31;;;;;;;;;62.67;50.00;;;;;10.95;100.00;100039.34;6310315;20;3625769;-52
2022/10/09 01:03:00;;;;;;;;;76.33;57.00;;;;;11.08;100.00;100035.00;6310504;20;3644105;-52
2022/10/09 01:06:27;;;;;;;;;69.75;53.75;;;;;10.61;100.00;100029.66;6284602;20;3632635;-52
2022/10/09 01:09:17;;;;;;;;;61.00;48.00;;;;;10.60;100.00;100028.78;6311734;20;2731590;-53
2022/10/09 01:12:03;;;;;;;;;67.67;52.67;;;;;10.68;100.00;100023.84;6281174;20;3631592;-50
2022/10/09 01:14:54;;;;;;;;;54.00;46.00;;;;;10.60;100.00;100027.94;6307912;20;2865908;-52
2022/10/09 01:17:41;;;;;;;;;52.67;45.00;;;;;10.53;100.00;100032.75;6309784;20;2871340;-54
2022/10/09 01:20:52;;;;;;;;;56.00;46.00;;;;;10.61;100.00;100024.28;6313622;20;2855498;-51
2022/10/09 01:24:12;;;;;;;;;60.00;48.00;;;;;10.48;100.00;100024.13;6312379;20;3619026;-49
2022/10/09 01:26:53;;;;;;;;;66.67;52.67;;;;;10.57;100.00;100023.59;6311744;20;3628445;-53
2022/10/09 01:29:31;;;;;;;;;65.67;50.33;;;;;10.63;100.00;100022.38;6310703;20;3634730;-52
2022/10/09 01:32:02;;;;;;;;;60.67;48.33;;;;;10.78;100.00;100029.56;6308449;20;3623160;-49
2022/10/09 01:34:33;;;;;;;;;61.67;48.67;;;;;10.76;100.00;100029.66;6309043;20;3628396;-50
2022/10/09 01:37:03;;;;;;;;;57.33;44.33;;;;;10.77;100.00;100025.16;6307685;20;3627414;-49
2022/10/09 01:39:35;;;;;;;;;56.33;45.33;;;;;10.73;100.00;100029.84;6310056;20;2869211;-52
2022/10/09 01:42:05;;;;;;;;;56.33;45.00;;;;;10.61;100.00;100022.50;6310089;20;2854572;-50
2022/10/09 01:44:35;;;;;;;;;52.67;43.00;;;;;10.69;100.00;100022.91;6309191;20;2859821;-52
2022/10/09 01:47:06;;;;;;;;;52.00;43.50;;;;;10.77;100.00;100031.41;6309064;20;2851366;-50
2022/10/09 01:49:53;;;;;;;;;57.00;46.00;;;;;10.57;100.00;100028.97;6280732;20;2866032;-51
2022/10/09 01:52:59;;;;;;;;;50.67;43.00;;;;;10.48;100.00;100034.88;6308792;20;2858682;-54
2022/10/09 01:55:57;;;;;;;;;55.00;48.00;;;;;10.47;100.00;100033.13;6309075;20;2850269;-54
2022/10/09 01:58:54;;;;;;;;;57.00;47.00;;;;;10.25;100.00;100034.28;6313948;20;3612748;-50
2022/10/09 02:01:31;;;;;;;;;46.67;35.00;;;;;10.45;100.00;100030.53;6310779;20;3608625;-52
2022/10/09 02:04:07;;;;;;;;;53.67;44.00;;;;;10.36;100.00;100024.81;6310644;20;2857586;-50
2022/10/09 02:06:39;;;;;;;;;52.50;43.00;;;;;10.38;100.00;100030.97;6307965;20;2858666;-54
2022/10/09 02:09:13;;;;;;;;;58.50;46.00;;;;;10.32;100.00;100029.44;6278071;20;2868366;-53
2022/10/09 02:11:53;;;;;;;;;58.00;45.67;;;;;10.49;100.00;100033.91;6277915;20;3623161;-51
2022/10/09 02:14:23;;;;;;;;;60.00;44.67;;;;;10.27;100.00;100032.41;6308554;20;3626285;-49
2022/10/09 02:17:07;;;;;;;;;54.50;42.50;;;;;10.24;100.00;100028.97;6306440;20;2859646;-50
2022/10/09 02:19:56;;;;;;;;;57.33;47.33;;;;;10.55;100.00;100023.66;6279977;20;3608654;-54
2022/10/09 02:22:30;;;;;;;;;60.00;48.67;;;;;10.63;100.00;100036.66;6308660;20;2873420;-53
2022/10/09 02:25:04;;;;;;;;;60.67;49.00;;;;;10.56;100.00;100038.00;6312456;20;3617046;-54
2022/10/09 02:27:35;;;;;;;;;57.33;47.33;;;;;10.47;100.00;100033.13;6277633;20;2869224;-55
2022/10/09 02:30:08;;;;;;;;;59.33;49.00;;;;;10.59;100.00;100039.63;6311334;20;3617142;-54
2022/10/09 02:32:38;;;;;;;;;60.00;48.33;;;;;10.43;100.00;100029.75;6307667;20;2881701;-54
2022/10/09 02:35:08;;;;;;;;;60.67;48.67;;;;;10.24;100.00;100035.22;6310623;20;3624218;-50
2022/10/09 02:37:37;;;;;;;;;60.67;48.33;;;;;9.93;100.00;100044.06;6309757;20;3611742;-54
2022/10/09 02:40:08;;;;;;;;;58.00;47.67;;;;;10.02;100.00;100042.69;6311920;20;2855727;-59
2022/10/09 02:42:39;;;;;;;;;58.00;45.00;;;;;9.98;100.00;100049.16;6310291;20;2870338;-55
2022/10/09 02:45:09;;;;;;;;;57.00;45.50;;;;;9.61;100.00;100049.31;6311726;20;2838783;-52
2022/10/09 02:47:38;;;;;;;;;58.67;45.00;;;;;9.45;100.00;100049.22;6279478;20;2872628;-61
2022/10/09 02:50:08;;;;;;;;;59.33;48.67;;;;;9.64;100.00;100054.50;6312518;20;3615921;-61
2022/10/09 02:52:37;;;;;;;;;55.50;46.00;;;;;9.45;100.00;100057.28;6311009;20;2870149;-61
2022/10/09 02:55:07;;;;;;;;;56.00;46.00;;;;;9.66;100.00;100055.28;6278770;20;3604417;-61
2022/10/09 02:57:36;;;;;;;;;59.67;49.00;;;;;9.78;100.00;100059.13;6308841;20;2860808;-61
2022/10/09 03:00:07;;;;;;;;;60.67;47.00;;;;;9.59;100.00;100059.22;6308258;20;3622203;-61
2022/10/09 03:02:37;;;;;;;;;56.33;46.00;;;;;9.60;100.00;100065.47;6308876;20;2861768;-61
2022/10/09 03:05:07;;;;;;;;;58.67;47.67;;;;;9.72;100.00;100070.19;6310267;20;3622269;-61
2022/10/09 03:07:37;;;;;;;;;53.67;45.33;;;;;9.75;100.00;100066.50;6308534;20;2860778;-61
2022/10/09 03:10:07;;;;;;;;;59.33;49.00;;;;;9.91;100.00;100071.91;6310952;20;2861847;-61
2022/10/09 03:12:36;;;;;;;;;60.00;48.67;;;;;10.05;100.00;100074.72;6309683;20;3615912;-61
2022/10/09 03:15:07;;;;;;;;;61.33;49.33;;;;;10.17;100.00;100071.41;6307810;20;3629419;-61
2022/10/09 03:17:36;;;;;;;;;60.00;49.33;;;;;10.15;100.00;100075.97;6309877;20;3610716;-61
2022/10/09 03:20:06;;;;;;;;;61.33;49.33;;;;;10.38;100.00;100065.84;6278049;20;3622306;-61
2022/10/09 03:22:36;;;;;;;;;60.00;48.00;;;;;10.33;100.00;100068.78;6308831;20;2858868;-61
2022/10/09 03:25:06;;;;;;;;;61.00;49.33;;;;;10.46;100.00;100068.97;6311968;20;3616923;-61
2022/10/09 03:27:36;;;;;;;;;63.33;50.00;;;;;10.25;100.00;100069.16;6305673;20;2874511;-61
2022/10/09 03:30:07;;;;;;;;;58.67;47.67;;;;;10.31;100.00;100079.59;6308203;20;2865006;-61
2022/10/09 03:32:36;;;;;;;;;58.33;48.33;;;;;10.12;100.00;100078.81;6309985;20;2867120;-61
2022/10/09 03:35:06;;;;;;;;;61.33;47.67;;;;;10.11;100.00;100085.16;6304085;20;3619044;-61
2022/10/09 03:37:36;;;;;;;;;58.67;48.33;;;;;10.28;100.00;100082.44;6311142;20;2858766;-61
2022/10/09 03:40:06;;;;;;;;;56.33;46.67;;;;;10.11;100.00;100085.16;6309164;20;2870285;-61
2022/10/09 03:42:36;;;;;;;;;63.33;49.00;;;;;9.94;100.00;100079.78;6306498;20;3620123;-61
2022/10/09 03:45:06;;;;;;;;;60.67;47.00;;;;;9.82;100.00;100079.50;6308404;20;3621126;-61
2022/10/09 03:47:36;;;;;;;;;64.00;51.00;;;;;9.85;100.00;100073.97;6308802;20;3625828;-61
2022/10/09 03:50:06;;;;;;;;;63.33;50.00;;;;;9.74;100.00;100073.66;6309552;20;3620076;-61
2022/10/09 03:52:36;;;;;;;;;63.00;50.00;;;;;9.77;100.00;100078.88;6307507;20;3626340;-61
2022/10/09 03:55:06;;;;;;;;;62.00;50.67;;;;;10.08;100.00;100083.50;6316049;20;3623303;-61
2022/10/09 03:57:36;;;;;;;;;66.67;49.33;;;;;10.10;100.00;100094.13;6314077;20;3635727;-61
2022/10/09 04:00:06;;;;;;;;;61.33;49.00;;;;;10.14;100.00;100102.88;6316394;20;3627417;-60
2022/10/09 04:02:36;;;;;;;;;64.00;51.00;;;;;10.23;100.00;100095.19;6282373;20;3616956;-61
2022/10/09 04:05:07;;;;;;;;;66.00;53.00;;;;;10.21;100.00;100097.09;6312707;20;3626347;-61
2022/10/09 04:07:36;;;;;;;;;70.33;56.33;;;;;10.24;100.00;100102.31;6313654;20;3629470;-61
2022/10/09 04:10:06;;;;;;;;;65.67;52.67;;;;;10.33;100.00;100101.84;6311248;20;3624330;-61
2022/10/09 04:12:36;;;;;;;;;65.00;51.67;;;;;10.04;100.00;100098.00;6309886;20;3632634;-61
2022/10/09 04:15:06;;;;;;;;;62.67;51.33;;;;;10.03;100.00;100088.22;6315249;20;3604417;-61
2022/10/09 04:17:36;;;;;;;;;63.00;50.00;;;;;10.03;100.00;100092.69;6277769;20;3624309;-61
2022/10/09 04:20:06;;;;;;;;;69.67;55.67;;;;;10.20;100.00;100086.47;6312389;20;2868297;-61
2022/10/09 04:22:35;;;;;;;;;65.33;52.33;;;;;10.14;100.00;100098.41;6313485;20;3611798;-61
2022/10/09 04:25:04;;;;;;;;;64.00;50.50;;;;;10.10;100.00;100095.00;6286104;20;2875279;-61
2022/10/09 04:27:34;;;;;;;;;70.33;54.33;;;;;10.11;100.00;100109.28;6281543;20;3634648;-61
2022/10/09 04:30:06;;;;;;;;;68.67;53.33;;;;;10.28;100.00;100103.06;6314276;20;3631485;-61
2022/10/09 04:32:35;;;;;;;;;65.67;50.33;;;;;10.23;100.00;100105.06;6311218;20;3627538;-61
2022/10/09 04:35:05;;;;;;;;;65.00;51.00;;;;;9.88;100.00;100100.63;6310638;20;3615886;-61
2022/10/09 04:37:35;;;;;;;;;68.00;53.00;;;;;9.80;100.00;100099.28;6313685;20;3611765;-61
2022/10/09 04:40:05;;;;;;;;;64.00;52.67;;;;;9.84;100.00;100093.66;6307929;20;3615931;-61
2022/10/09 04:42:35;;;;;;;;;65.33;52.00;;;;;10.01;100.00;100100.84;6312684;20;3619058;-61
2022/10/09 04:45:04;;;;;;;;;67.00;54.00;;;;;9.92;100.00;100117.41;6316311;20;3622143;-61
2022/10/09 04:47:34;;;;;;;;;67.67;54.33;;;;;9.88;100.00;100111.34;6279584;20;3628392;-61
2022/10/09 04:50:03;;;;;;;;;75.33;59.00;;;;;9.66;100.00;100121.44;6315203;20;3628517;-61
2022/10/09 04:52:33;;;;;;;;;78.67;62.67;;;;;9.62;100.00;100118.06;6282370;20;3641903;-61
2022/10/09 04:55:02;;;;;;;;;78.00;62.00;;;;;10.01;100.00;100124.13;6317946;20;3644184;-61
2022/10/09 04:57:30;;;;;;;;;66.33;53.00;;;;;10.07;100.00;100138.09;6284287;20;3616932;-61
2022/10/09 05:00:00;;;;;;;;;70.67;54.33;;;;;10.02;100.00;100136.59;6282775;20;2871292;-61
2022/10/09 05:02:31;;;;;;;;;66.33;53.33;;;;;10.17;100.00;100132.25;6309654;20;3617976;-61
2022/10/09 05:05:00;;;;;;;;;61.00;50.33;;;;;10.05;100.00;100131.06;6314978;20;3610813;-61
2022/10/09 05:07:30;;;;;;;;;65.33;51.00;;;;;10.09;100.00;100136.19;6313028;20;3622122;-61
2022/10/09 05:09:58;;;;;;;;;70.67;56.67;;;;;10.36;100.00;100138.41;6315149;20;3622172;-61
2022/10/09 05:12:28;;;;;;;;;71.00;55.67;;;;;10.21;100.00;100131.97;6281645;20;3635704;-61
2022/10/09 05:14:56;;;;;;;;;68.00;53.33;;;;;10.56;100.00;100137.34;6314873;20;3633756;-61
2022/10/09 05:17:25;;;;;;;;;65.33;54.33;;;;;10.83;100.00;100129.56;6278154;20;3622160;-62
2022/10/09 05:19:55;;;;;;;;;61.67;50.33;;;;;10.95;100.00;100136.97;6277869;20;2869788;-61
2022/10/09 05:22:22;;;;;;;;;67.00;54.00;;;;;11.10;100.00;100137.03;6313358;20;2747138;-61
2022/10/09 05:24:52;;;;;;;;;67.00;52.33;;;;;11.15;100.00;100137.63;6276456;20;3629406;-61
2022/10/09 05:27:21;;;;;;;;;63.00;51.67;;;;;11.12;100.00;100144.06;6308541;20;3613851;-61
2022/10/09 05:29:50;;;;;;;;;71.33;56.00;;;;;11.14;100.00;100158.28;6311576;20;3605967;-61
2022/10/09 05:32:20;;;;;;;;;81.67;70.33;;;;;11.32;100.00;100177.00;6282039;20;3654422;-61
2022/10/09 05:34:49;;;;;;;;;72.33;54.67;;;;;11.44;100.00;100184.38;6280049;20;3632558;-61
2022/10/09 05:37:18;;;;;;;;;70.33;56.33;;;;;11.49;100.00;100184.13;6312675;20;3607580;-61
2022/10/09 05:39:47;;;;;;;;;69.33;52.33;;;;;11.79;100.00;100178.75;6281445;20;3636856;-61
2022/10/09 05:42:16;;;;;;;;;66.00;53.00;;;;;11.99;100.00;100183.88;6315510;20;3616700;-61
2022/10/09 05:44:46;;;;;;;;;65.00;51.67;;;;;12.05;100.00;100196.09;6279686;20;3620231;-61
2022/10/09 05:47:16;;;;;;;;;66.00;52.67;;;;;12.19;100.00;100190.78;6315147;20;3608572;-61
2022/10/09 05:49:46;;;;;;;;;63.33;51.33;;;;;12.18;100.00;100188.16;6280460;20;3623296;-61
2022/10/09 05:52:15;;;;;;;;;61.00;48.33;;;;;12.25;100.00;100205.69;6312223;20;3619001;-61
2022/10/09 05:54:44;;;;;;;;;61.33;49.00;;;;;12.24;100.00;100209.31;6280727;20;2870062;-61
2022/10/09 05:57:13;;;;;;;;;64.00;51.67;;;;;12.19;100.00;100208.72;6312378;20;3618114;-61
2022/10/09 05:59:42;;;;;;;;;64.00;51.33;;;;;12.14;100.00;100208.13;6281732;20;3612736;-61
2022/10/09 06:02:11;;;;;;;;;65.00;52.67;;;;;12.19;100.00;100204.22;6308334;20;3608809;-61
2022/10/09 06:04:41;;;;;;;;;63.67;51.33;;;;;12.41;100.00;100211.88;6281065;20;3629536;-61
2022/10/09 06:07:10;;;;;;;;;58.67;48.67;;;;;12.50;100.00;100200.50;6311817;20;3620044;-61
2022/10/09 06:09:40;;;;;;;;;59.00;47.67;;;;;12.55;100.00;100210.16;6283600;20;3621100;-61
2022/10/09 06:12:09;;;;;;;;;60.00;49.67;;;;;12.48;100.00;100213.22;6278971;20;3605578;-61
2022/10/09 06:14:39;;;;;;;;;58.00;48.00;;;;;12.56;100.00;100214.56;6308209;20;2860820;-61
2022/10/09 06:17:07;;;;;;;;;63.00;51.00;;;;;12.81;100.00;100220.19;6310653;20;3616003;-61
2022/10/09 06:19:36;;;;;;;;;63.00;50.00;;;;;13.11;100.00;100221.91;6281785;20;3613981;-61
2022/10/09 06:22:06;;;;;;;;;63.33;50.00;;;;;13.45;100.00;100230.56;6276860;20;3622180;-61
2022/10/09 06:24:35;;;;;;;;;55.00;45.33;;;;;13.87;100.00;100231.41;6311831;20;3602482;-61
2022/10/09 06:27:04;;;;;;;;;58.33;48.33;;;;;14.06;100.00;100226.53;6311268;20;3617048;-61
2022/10/09 06:29:34;;;;;;;;;60.33;48.33;;;;;14.26;100.00;100228.72;6278310;20;3621091;-61
2022/10/09 06:32:02;;;;;;;;;56.67;46.67;;;;;14.50;100.00;100239.69;6310141;20;3609656;-61
2022/10/09 06:34:32;;;;;;;;;55.67;46.00;;;;;14.54;100.00;100247.63;6280918;20;3627361;-61
2022/10/09 06:37:00;;;;;;;;;58.00;47.33;;;;;14.61;100.00;100243.50;6311654;20;3600392;-61
2022/10/09 06:39:29;;;;;;;;;60.67;49.00;;;;;14.94;100.00;100237.59;6280860;20;3621125;-61
2022/10/09 06:41:58;;;;;;;;;57.00;45.67;;;;;15.44;100.00;100249.31;6282587;20;3620083;-61
2022/10/09 06:44:26;;;;;;;;;56.67;45.00;;;;;17.60;93.22;100261.63;6284669;20;3634412;-61
2022/10/09 06:46:55;;;;;;;;;66.67;51.67;;;;;16.15;95.38;100261.22;6277960;20;3628372;-61
2022/10/09 06:49:24;;;;;;;;;57.33;46.33;;;;;15.34;100.00;100267.19;6285879;20;3609667;-61
2022/10/09 06:51:53;;;;;;;;;52.67;43.00;;;;;17.04;93.92;100272.50;6279822;20;2860785;-61
2022/10/09 06:54:22;;;;;;;;;55.00;45.33;;;;;16.54;93.20;100261.00;6316301;20;3622158;-61
2022/10/09 06:56:52;;;;;;;;;53.33;43.67;;;;;15.92;97.07;100271.06;6280317;20;3596192;-61
2022/10/09 06:59:21;;;;;;;;;50.00;42.00;;;;;15.71;98.08;100275.38;6274752;20;2844065;-61
2022/10/09 07:01:50;;;;;;;;;54.67;44.00;;;;;16.05;98.58;100275.56;6311917;20;3623185;-61
2022/10/09 07:04:20;;;;;;;;;51.67;41.33;;;;;15.92;97.17;100287.31;6276182;20;2846146;-61
2022/10/09 07:06:49;;;;;;;;;58.33;46.67;;;;;15.99;97.97;100288.59;6300496;20;3612839;-61
2022/10/09 07:09:17;;;;;;;;;59.67;48.33;;;;;16.23;95.50;100287.72;6268196;20;3624359;-61
2022/10/09 07:11:49;;;;;;;;;50.33;41.67;;;;;16.34;94.20;100293.19;6274148;20;3577555;-60
2022/10/09 07:14:19;;;;;;;;;49.33;40.33;;;;;15.97;95.95;100295.97;6270688;20;2865156;-60
2022/10/09 07:16:50;;;;;;;;;48.67;39.67;;;;;16.26;94.64;100301.03;6306764;20;3592993;-61
2022/10/09 07:19:20;;;;;;;;;45.67;38.67;;;;;16.30;94.88;100302.56;6273487;20;2846159;-60
2022/10/09 07:21:51;;;;;;;;;48.33;39.67;;;;;16.39;94.64;100307.25;6312260;20;3582642;-53
2022/10/09 07:24:23;;;;;;;;;50.33;42.67;;;;;16.33;94.24;100310.44;6279770;20;2855751;-55
2022/10/09 07:26:54;;;;;;;;;47.00;39.67;;;;;16.46;94.03;100316.66;6309033;20;3572259;-55
2022/10/09 07:29:23;;;;;;;;;42.33;36.00;;;;;16.36;93.21;100312.91;6276929;20;3620124;-51
2022/10/09 07:31:52;;;;;;;;;47.00;38.33;;;;;17.05;91.98;100321.19;6312263;20;3596255;-52
2022/10/09 07:34:22;;;;;;;;;27.33;27.33;;;;;17.09;90.23;100319.97;6283700;20;3587795;-54
2022/10/09 07:36:50;;;;;;;;;40.67;34.33;;;;;17.06;89.40;100322.03;6277396;20;3591952;-55
2022/10/09 07:39:19;;;;;;;;;41.00;35.00;;;;;17.40;88.71;100331.09;6277993;20;2859690;-50
2022/10/09 07:41:51;;;;;;;;;44.33;37.33;;;;;17.83;87.68;100337.69;6279162;20;2861905;-52
2022/10/09 07:44:20;;;;;;;;;41.00;33.33;;;;;17.39;87.50;100340.22;6306527;20;3591802;-53
2022/10/09 07:46:50;;;;;;;;;35.67;33.00;;;;;17.40;88.82;100339.25;6282446;20;3600296;-51
2022/10/09 07:49:19;;;;;;;;;36.67;30.33;;;;;17.66;87.83;100339.88;6286917;20;3603448;-49
2022/10/09 07:51:48;;;;;;;;;40.00;35.33;;;;;17.79;86.49;100347.91;6280741;20;3612049;-52
2022/10/09 07:54:17;;;;;;;;;44.67;37.00;;;;;17.63;87.30;100347.41;6283348;20;3611832;-46
2022/10/09 07:56:45;;;;;;;;;46.00;39.00;;;;;17.75;87.09;100351.84;6274510;20;2738238;-53
2022/10/09 07:59:16;;;;;;;;;38.00;32.00;;;;;18.22;85.98;100349.84;6274074;20;2859747;-53
2022/10/09 08:01:45;;;;;;;;;28.33;27.67;;;;;18.06;85.49;100350.25;6311495;20;3580495;-53
2022/10/09 08:04:14;;;;;;;;;40.67;36.00;;;;;18.51;84.77;100355.56;6280191;20;3607623;-52
2022/10/09 08:06:43;;;;;;;;;41.33;34.33;;;;;18.05;84.44;100359.38;6309552;20;3590982;-54
2022/10/09 08:09:12;;;;;;;;;33.67;31.33;;;;;18.38;84.41;100354.88;6276664;20;3599200;-53
2022/10/09 08:11:41;;;;;;;;;36.33;33.33;;;;;18.60;82.82;100357.50;6314733;20;3597229;-52
2022/10/09 08:14:13;;;;;;;;;39.00;32.33;;;;;18.60;82.15;100360.22;6284269;20;3597138;-53
2022/10/09 08:16:48;;;;;;;;;43.00;33.25;;;;;18.51;82.72;100361.00;6280597;20;3631563;-55
2022/10/09 08:19:16;;;;;;;;;40.67;35.33;;;;;18.57;81.33;100355.03;6315307;20;3594442;-56
2022/10/09 08:21:45;;;;;;;;;32.67;30.00;;;;;18.42;81.90;100364.50;6277793;20;3604436;-54
2022/10/09 08:24:14;;;;;;;;;33.00;30.33;;;;;18.60;79.48;100359.38;6280002;20;3590225;-53
2022/10/09 08:26:43;;;;;;;;;31.33;29.00;;;;;18.72;79.40;100362.88;6269816;20;3588820;-50
2022/10/09 08:29:14;;;;;;;;;30.67;29.67;;;;;19.03;78.56;100364.75;6283894;20;3591942;-51
2022/10/09 08:31:43;;;;;;;;;35.00;30.67;;;;;18.96;78.56;100358.13;6280411;20;3591909;-59
2022/10/09 08:34:12;;;;;;;;;34.00;30.00;;;;;18.89;78.27;100358.78;6284354;20;3596087;-60
2022/10/09 08:36:40;;;;;;;;;30.00;27.00;;;;;18.87;77.57;100358.91;6279003;20;3599199;-60
2022/10/09 08:39:09;;;;;;;;;30.33;28.67;;;;;19.04;77.65;100368.34;6278152;20;3585742;-60
2022/10/09 08:41:46;;;;;;;;;29.33;26.67;;;;;19.23;77.70;100375.78;6290234;20;3601357;-60
2022/10/09 08:44:38;;;;;;;;;29.67;28.00;;;;;18.92;77.33;100375.69;6286994;20;3581686;-60
2022/10/09 08:47:23;;;;;;;;;27.00;26.00;;;;;19.37;77.23;100375.44;6282233;20;3601339;-59
2022/10/09 08:50:19;;;;;;;;;30.67;30.33;;;;;19.13;75.51;100372.13;6284340;20;3584353;-59
2022/10/09 08:53:36;;;;;;;;;31.33;28.67;;;;;19.03;76.97;100372.91;6285005;20;3587881;-59
2022/10/09 08:56:13;;;;;;;;;30.75;24.25;;;;;19.37;75.80;100375.44;6281561;20;3613923;-60
2022/10/09 08:58:44;;;;;;;;;36.75;29.75;;;;;19.26;75.66;100384.53;6313199;20;3610844;-59
2022/10/09 09:01:34;;;;;;;;;29.00;27.00;;;;;18.75;76.39;100389.91;6314736;20;3591922;-59
2022/10/09 09:04:27;;;;;;;;;29.67;29.67;;;;;19.13;75.57;100383.03;6287316;20;3582539;-59
2022/10/09 09:07:30;;;;;;;;;28.00;27.67;;;;;19.19;74.39;100387.91;6283649;20;3603388;-60
2022/10/09 09:10:10;;;;;;;;;33.00;28.25;;;;;19.13;75.57;100386.59;6285776;20;3609665;-59
2022/10/09 09:12:54;;;;;;;;;31.00;28.00;;;;;19.29;74.58;100383.41;6317406;20;3592998;-59
2022/10/09 09:16:00;;;;;;;;;28.33;28.33;;;;;19.12;75.20;100387.59;6314493;20;3602376;-60
2022/10/09 09:18:44;;;;;;;;;28.67;26.33;;;;;19.41;73.03;100393.25;6283214;20;3597213;-59
2022/10/09 09:21:45;;;;;;;;;24.00;24.00;;;;;19.56;72.31;100401.06;6281926;20;3585669;-60
2022/10/09 09:24:35;;;;;;;;;22.50;22.00;;;;;19.33;74.16;100400.38;6286879;20;2834753;-60
2022/10/09 09:27:18;;;;;;;;;24.00;22.00;;;;;19.26;74.43;100398.16;6284786;20;3585731;-61
2022/10/09 09:30:18;;;;;;;;;22.00;20.67;;;;;19.51;72.93;100399.63;6285683;20;3580623;-59
2022/10/09 09:33:10;;;;;;;;;25.00;23.00;;;;;20.06;71.81;100402.03;6282782;20;3483711;-60
2022/10/09 09:36:30;;;;;;;;;26.00;22.00;;;;;20.03;71.51;100409.63;6311169;20;3581529;-60
2022/10/09 09:38:58;;;;;;;;;23.33;22.00;;;;;19.69;71.52;100413.50;6288116;20;3591963;-59
2022/10/09 09:41:47;;;;;;;;;20.00;20.00;;;;;19.80;70.88;100419.84;6283910;20;3569123;-60
2022/10/09 09:44:17;;;;;;;;;27.67;26.00;;;;;19.92;69.40;100419.63;6284926;20;3599948;-60
2022/10/09 09:46:48;;;;;;;;;23.00;22.33;;;;;20.13;69.87;100421.44;6285348;20;3580877;-60
2022/10/09 09:49:26;;;;;;;;;22.67;20.67;;;;;19.76;71.58;100418.41;6283360;20;3569250;-60
2022/10/09 09:51:57;;;;;;;;;24.67;24.67;;;;;19.17;74.37;100417.13;6280322;20;3600366;-60
2022/10/09 09:54:29;;;;;;;;;28.67;28.67;;;;;19.26;73.99;100419.06;6283974;20;3577483;-59
2022/10/09 09:57:00;;;;;;;;;29.33;27.00;;;;;19.88;72.00;100415.47;6283405;20;3567993;-60
2022/10/09 09:59:43;;;;;;;;;24.67;23.67;;;;;19.74;71.07;100413.09;6279067;20;3585670;-60
2022/10/09 10:02:22;;;;;;;;;27.33;27.00;;;;;19.92;72.81;100411.47;6283029;20;3592011;-59
2022/10/09 10:04:59;;;;;;;;;28.25;23.75;;;;;19.95;71.26;100419.34;6283244;20;3604427;-59
2022/10/09 10:07:33;;;;;;;;;25.67;22.67;;;;;19.60;73.10;100424.31;6314118;20;3588835;-60
2022/10/09 10:10:23;;;;;;;;;29.67;26.00;;;;;19.55;71.91;100418.41;6315626;20;3612838;-60
2022/10/09 10:12:59;;;;;;;;;26.00;25.33;;;;;19.19;75.44;100416.00;6280405;20;3606544;-60
2022/10/09 10:15:33;;;;;;;;;30.33;25.67;;;;;19.43;74.37;100417.59;6281378;20;3604567;-59
2022/10/09 10:18:11;;;;;;;;;31.75;27.25;;;;;19.56;74.88;100420.13;6281467;20;3612750;-59
2022/10/09 10:21:00;;;;;;;;;27.00;24.67;;;;;19.17;74.62;100411.69;6314532;20;3589954;-60
2022/10/09 10:23:40;;;;;;;;;29.33;25.67;;;;;19.07;76.23;100417.94;6281942;20;3600294;-59
2022/10/09 10:26:39;;;;;;;;;25.33;25.33;;;;;19.32;74.63;100409.50;6282212;20;3601423;-59
2022/10/09 10:29:43;;;;;;;;;25.00;24.33;;;;;19.57;73.91;100419.16;6287075;20;3590946;-59
2022/10/09 10:32:51;;;;;;;;;26.00;25.00;;;;;19.48;73.84;100421.69;6285197;20;3588826;-59
2022/10/09 10:35:26;;;;;;;;;29.00;26.00;;;;;19.46;74.47;100428.25;6284739;20;3604899;-58
2022/10/09 10:38:16;;;;;;;;;26.67;26.00;;;;;19.32;75.46;100425.84;6282647;20;3595067;-59
2022/10/09 10:40:55;;;;;;;;;29.75;26.00;;;;;19.29;73.78;100416.94;6285908;20;3602334;-58
2022/10/09 10:43:50;;;;;;;;;26.33;26.00;;;;;19.32;74.96;100423.13;6310207;20;3581530;-58
2022/10/09 10:46:33;;;;;;;;;29.33;24.67;;;;;19.53;74.32;100422.13;6282687;20;3606539;-54
2022/10/09 10:49:02;;;;;;;;;26.67;23.00;;;;;19.56;74.71;100417.41;6279252;20;3596284;-58
2022/10/09 10:51:52;;;;;;;;;25.67;22.00;;;;;19.20;73.41;100419.63;6283236;20;3571647;-58
2022/10/09 10:54:39;;;;;;;;;24.00;22.00;;;;;19.30;73.25;100424.13;6283070;20;3585727;-58
2022/10/09 10:57:41;;;;;;;;;26.33;25.67;;;;;19.26;74.70;100417.22;6281294;20;3602464;-58
2022/10/09 11:00:12;;;;;;;;;29.33;23.00;;;;;19.00;75.42;100416.72;6281496;20;3595121;-57
2022/10/09 11:03:41;;;;;;;;;23.67;23.67;;;;;19.25;73.58;100414.66;6278039;20;3595155;-59
2022/10/09 11:06:38;;;;;;;;;21.33;20.33;;;;;19.49;73.31;100411.66;6281764;20;3584751;-58
2022/10/09 11:09:37;;;;;;;;;27.00;25.00;;;;;19.45;71.48;100416.47;6283604;20;3594021;-58
2022/10/09 11:12:40;;;;;;;;;26.00;23.00;;;;;19.95;70.93;100416.63;6282821;20;3604435;-58
2022/10/09 11:15:47;;;;;;;;;24.00;23.00;;;;;19.90;71.11;100415.31;6313382;20;3575247;-58
2022/10/09 11:19:02;;;;;;;;;21.00;21.00;;;;;20.05;70.20;100413.09;6287493;20;3571111;-58
2022/10/09 11:22:16;;;;;;;;;21.00;21.00;;;;;20.30;69.03;100415.34;6284468;20;3585700;-58
2022/10/09 11:25:40;;;;;;;;;23.00;20.00;;;;;20.20;68.14;100409.00;6286646;20;3573169;-59
2022/10/09 11:28:22;;;;;;;;;24.33;23.33;;;;;20.42;67.57;100407.03;6277423;20;3584712;-58